createdAt,value
2018-06-11T00:01:44.184Z,85.50
2018-06-11T00:04:12.845Z,85.50
2018-06-11T00:06:41.480Z,85.30
2018-06-11T00:09:10.123Z,85.50
2018-06-11T00:11:38.765Z,85.60
2018-06-11T00:14:07.333Z,85.80
2018-06-11T00:16:36.127Z,85.60
2018-06-11T00:19:04.753Z,85.60
2018-06-11T00:21:33.347Z,85.80
2018-06-11T00:24:02.006Z,86.20
2018-06-11T00:26:30.596Z,86.10
2018-06-11T00:28:59.222Z,86.40
2018-06-11T00:31:27.831Z,86.30
2018-06-11T00:33:56.440Z,86.30
2018-06-11T00:36:25.233Z,86.20
2018-06-11T00:38:53.853Z,86.20
2018-06-11T00:41:22.460Z,86.00
2018-06-11T00:43:51.086Z,86.00
2018-06-11T00:46:19.675Z,86.10
2018-06-11T00:48:48.293Z,86.20
2018-06-11T00:51:16.965Z,86.20
2018-06-11T00:53:45.556Z,86.30
2018-06-11T00:56:14.173Z,87.10
2018-06-11T00:58:42.835Z,86.50
2018-06-11T01:01:11.478Z,86.40
2018-06-11T01:03:40.091Z,86.10
2018-06-11T01:06:08.766Z,86.10
2018-06-11T01:08:37.400Z,85.90
2018-06-11T01:11:06.176Z,85.90
2018-06-11T01:13:34.765Z,85.90
2018-06-11T01:16:03.424Z,86.40
2018-06-11T01:18:32.059Z,86.40
2018-06-11T01:21:00.648Z,86.20
2018-06-11T01:23:29.265Z,86.30
2018-06-11T01:25:58.194Z,86.50
2018-06-11T01:28:26.806Z,86.20
2018-06-11T01:30:55.448Z,86.80
2018-06-11T01:33:24.078Z,86.60
2018-06-11T01:35:52.679Z,86.40
2018-06-11T01:38:21.304Z,86.40
2018-06-11T01:40:50.012Z,86.40
2018-06-11T01:43:18.614Z,86.80
2018-06-11T01:45:47.200Z,86.80
2018-06-11T01:48:15.843Z,87.20
2018-06-11T01:50:44.420Z,87.00
2018-06-11T01:53:13.028Z,87.10
2018-06-11T01:55:41.784Z,87.20
2018-06-11T01:58:10.408Z,87.10
2018-06-11T02:00:39.029Z,87.20
2018-06-11T02:03:07.641Z,87.10
2018-06-11T02:05:36.297Z,87.20
2018-06-11T02:08:04.964Z,87.30
2018-06-11T02:10:33.618Z,86.90
2018-06-11T02:13:02.777Z,86.70
2018-06-11T02:15:31.396Z,86.70
2018-06-11T02:18:00.025Z,86.80
2018-06-11T02:20:28.672Z,86.90
2018-06-11T02:22:57.317Z,87.00
2018-06-11T02:25:26.004Z,87.00
2018-06-11T02:27:54.621Z,87.00
2018-06-11T02:30:25.412Z,86.80
2018-06-11T02:32:56.453Z,86.90
2018-06-11T02:35:25.102Z,86.90
2018-06-11T02:37:53.709Z,87.10
2018-06-11T02:40:22.303Z,87.30
2018-06-11T02:42:51.038Z,87.50
2018-06-11T02:45:19.685Z,87.60
2018-06-11T02:47:48.265Z,87.60
2018-06-11T02:50:16.886Z,88.00
2018-06-11T02:52:45.490Z,87.60
2018-06-11T02:55:14.213Z,87.70
2018-06-11T02:57:42.831Z,87.30
2018-06-11T03:00:11.433Z,87.40
2018-06-11T03:02:40.064Z,87.60
2018-06-11T03:05:08.687Z,87.80
2018-06-11T03:07:37.417Z,87.50
2018-06-11T03:10:06.030Z,87.30
2018-06-11T03:12:34.811Z,87.00
2018-06-11T03:15:03.414Z,87.10
2018-06-11T03:17:32.063Z,86.90
2018-06-11T03:20:00.678Z,86.80
2018-06-11T03:22:29.288Z,86.80
2018-06-11T03:24:57.941Z,86.70
2018-06-11T03:27:26.556Z,86.90
2018-06-11T03:29:55.165Z,87.00
2018-06-11T03:32:23.788Z,87.10
2018-06-11T03:34:52.396Z,87.10
2018-06-11T03:37:21.038Z,87.10
2018-06-11T03:39:49.637Z,87.10
2018-06-11T03:42:18.220Z,87.10
2018-06-11T03:44:46.851Z,87.20
2018-06-11T03:47:16.593Z,87.80
2018-06-11T03:49:45.237Z,87.70
2018-06-11T03:52:13.841Z,88.10
2018-06-11T03:54:42.559Z,88.10
2018-06-11T03:57:11.188Z,88.00
2018-06-11T03:59:39.802Z,88.40
2018-06-11T04:02:08.586Z,88.60
2018-06-11T04:04:37.214Z,88.70
2018-06-11T04:07:06.077Z,88.70
2018-06-11T04:09:34.698Z,88.40
2018-06-11T04:12:03.322Z,89.00
2018-06-11T04:14:32.026Z,88.40
2018-06-11T04:17:00.629Z,88.30
2018-06-11T04:19:29.885Z,88.80
2018-06-11T04:21:58.521Z,89.20
2018-06-11T04:24:27.168Z,88.80
2018-06-11T04:26:55.782Z,88.30
2018-06-11T04:29:24.412Z,89.20
2018-06-11T04:31:53.056Z,89.50
2018-06-11T04:34:21.736Z,88.90
2018-06-11T04:36:50.312Z,88.90
2018-06-11T04:39:18.982Z,88.50
2018-06-11T04:41:47.562Z,89.10
2018-06-11T04:44:16.200Z,88.50
2018-06-11T04:46:44.834Z,89.00
2018-06-11T04:49:13.450Z,88.30
2018-06-11T04:51:42.069Z,87.90
2018-06-11T04:54:10.721Z,87.70
2018-06-11T04:56:39.518Z,88.10
2018-06-11T04:59:08.138Z,88.10
2018-06-11T05:01:36.752Z,89.00
2018-06-11T05:04:05.537Z,88.40
2018-06-11T05:06:34.152Z,88.60
2018-06-11T05:09:02.962Z,87.30
2018-06-11T05:11:31.570Z,87.40
2018-06-11T05:14:00.206Z,86.80
2018-06-11T05:16:28.825Z,85.90
2018-06-11T05:18:57.400Z,85.80
2018-06-11T05:21:26.102Z,86.40
2018-06-11T05:23:54.697Z,86.00
2018-06-11T05:26:23.405Z,86.20
2018-06-11T05:28:52.020Z,86.30
2018-06-11T05:31:20.616Z,86.50
2018-06-11T05:33:49.219Z,87.00
2018-06-11T05:36:17.865Z,85.80
2018-06-11T05:38:47.034Z,86.00
2018-06-11T05:41:15.949Z,85.70
2018-06-11T05:43:44.574Z,86.40
2018-06-11T05:46:13.219Z,85.40
2018-06-11T05:48:41.840Z,85.00
2018-06-11T05:51:10.524Z,84.50
2018-06-11T05:53:39.195Z,84.30
2018-06-11T05:56:07.902Z,83.50
2018-06-11T05:58:36.566Z,82.80
2018-06-11T06:01:05.184Z,83.50
2018-06-11T06:03:33.784Z,83.20
2018-06-11T06:06:02.489Z,83.10
2018-06-11T06:08:31.209Z,82.10
2018-06-11T06:10:59.875Z,81.30
2018-06-11T06:13:28.577Z,82.70
2018-06-11T06:15:58.511Z,82.50
2018-06-11T06:18:27.192Z,82.10
2018-06-11T06:20:55.807Z,81.50
2018-06-11T06:23:24.404Z,81.50
2018-06-11T06:25:53.037Z,81.70
2018-06-11T06:28:21.629Z,81.50
2018-06-11T06:30:50.277Z,81.20
2018-06-11T06:33:18.886Z,81.20
2018-06-11T06:35:47.509Z,81.20
2018-06-11T06:38:16.162Z,80.50
2018-06-11T06:40:44.763Z,80.20
2018-06-11T06:43:13.393Z,79.80
2018-06-11T06:45:42.017Z,80.00
2018-06-11T06:48:10.655Z,80.10
2018-06-11T06:50:39.327Z,80.40
2018-06-11T06:53:07.939Z,80.00
2018-06-11T06:55:36.659Z,80.70
2018-06-11T06:58:06.008Z,81.00
2018-06-11T07:00:34.641Z,80.60
2018-06-11T07:03:03.282Z,80.50
2018-06-11T07:05:31.874Z,80.50
2018-06-11T07:08:00.717Z,80.10
2018-06-11T07:10:29.378Z,80.00
2018-06-11T07:12:58.037Z,79.60
2018-06-11T07:15:26.694Z,80.20
2018-06-11T07:17:55.380Z,80.50
2018-06-11T07:20:24.038Z,80.70
2018-06-11T07:22:52.718Z,79.40
2018-06-11T07:25:21.380Z,80.00
2018-06-11T07:27:50.064Z,80.00
2018-06-11T07:30:18.717Z,80.00
2018-06-11T07:32:47.372Z,79.40
2018-06-11T07:35:16.001Z,79.00
2018-06-11T07:37:44.724Z,78.40
2018-06-11T07:40:13.345Z,79.00
2018-06-11T07:42:41.981Z,78.80
2018-06-11T07:45:10.642Z,79.10
2018-06-11T07:47:39.309Z,79.80
2018-06-11T07:50:08.016Z,78.50
2018-06-11T07:52:36.645Z,79.50
2018-06-11T07:55:05.325Z,77.60
2018-06-11T07:57:34.167Z,79.00
2018-06-11T08:00:02.927Z,77.00
2018-06-11T08:02:31.501Z,75.90
2018-06-11T08:05:00.148Z,76.70
2018-06-11T08:07:28.848Z,76.60
2018-06-11T08:09:57.530Z,76.20
2018-06-11T08:12:26.190Z,76.80
2018-06-11T08:14:54.903Z,76.70
2018-06-11T08:17:23.620Z,75.80
2018-06-11T08:19:52.312Z,74.60
2018-06-11T08:22:20.994Z,74.00
2018-06-11T08:24:49.653Z,74.70
2018-06-11T08:27:18.292Z,76.10
2018-06-11T08:29:46.917Z,74.90
2018-06-11T08:32:15.579Z,75.00
2018-06-11T08:34:44.211Z,73.40
2018-06-11T08:37:12.849Z,72.10
2018-06-11T08:39:41.540Z,69.30
2018-06-11T08:42:10.165Z,69.10
2018-06-11T08:44:38.851Z,70.00
2018-06-11T08:47:07.482Z,69.30
2018-06-11T08:49:36.144Z,68.90
2018-06-11T08:52:04.899Z,68.90
2018-06-11T08:54:33.562Z,67.30
2018-06-11T08:57:02.285Z,66.30
2018-06-11T08:59:30.917Z,66.60
2018-06-11T09:01:59.625Z,68.20
2018-06-11T09:04:28.299Z,68.00
2018-06-11T09:06:56.961Z,66.30
2018-06-11T09:09:25.675Z,67.30
2018-06-11T09:11:54.297Z,68.40
2018-06-11T09:14:23.112Z,65.50
2018-06-11T09:16:51.759Z,63.80
2018-06-11T09:19:20.424Z,63.20
2018-06-11T09:21:49.085Z,64.00
2018-06-11T09:24:17.790Z,63.40
2018-06-11T09:26:46.450Z,64.30
2018-06-11T09:29:15.159Z,66.20
2018-06-11T09:31:43.802Z,66.00
2018-06-11T09:34:12.645Z,62.00
2018-06-11T09:36:41.321Z,62.20
2018-06-11T09:39:10.041Z,60.30
2018-06-11T09:41:38.702Z,59.30
2018-06-11T09:44:07.365Z,60.00
2018-06-11T09:46:36.142Z,60.00
2018-06-11T09:49:04.957Z,61.00
2018-06-11T09:51:33.655Z,59.70
2018-06-11T09:54:02.354Z,59.40
2018-06-11T09:56:31.161Z,59.60
2018-06-11T09:58:59.849Z,59.30
2018-06-11T10:01:28.469Z,59.10
2018-06-11T10:03:57.112Z,61.30
2018-06-11T10:06:25.759Z,58.20
2018-06-11T10:08:54.371Z,60.00
2018-06-11T10:11:23.000Z,59.10
2018-06-11T10:13:51.717Z,58.80
2018-06-11T10:16:20.385Z,64.20
2018-06-11T10:18:49.080Z,57.20
2018-06-11T10:21:18.621Z,59.90
2018-06-11T10:23:47.266Z,58.10
2018-06-11T10:26:15.933Z,54.60
2018-06-11T10:28:44.605Z,55.10
2018-06-11T10:31:13.286Z,56.20
2018-06-11T10:33:41.929Z,55.10
2018-06-11T10:36:10.617Z,55.70
2018-06-11T10:38:39.333Z,54.30
2018-06-11T10:41:07.993Z,54.30
2018-06-11T10:43:36.639Z,54.40
2018-06-11T10:46:05.249Z,53.30
2018-06-11T10:48:33.868Z,53.90
2018-06-11T10:51:02.502Z,52.40
2018-06-11T10:53:31.135Z,54.20
2018-06-11T10:55:59.883Z,54.30
2018-06-11T10:58:28.587Z,52.60
2018-06-11T11:00:57.220Z,51.50
2018-06-11T11:03:25.857Z,52.90
2018-06-11T11:05:54.467Z,50.00
2018-06-11T11:08:23.113Z,52.00
2018-06-11T11:10:51.688Z,50.50
2018-06-11T11:13:20.314Z,50.70
2018-06-11T11:15:48.921Z,49.60
2018-06-11T11:18:17.564Z,50.00
2018-06-11T11:20:46.249Z,52.30
2018-06-11T11:23:14.888Z,50.80
2018-06-11T11:25:43.717Z,49.70
2018-06-11T11:28:12.326Z,49.50
2018-06-11T11:30:40.985Z,50.80
2018-06-11T11:33:09.578Z,49.10
2018-06-11T11:35:38.201Z,50.80
2018-06-11T11:38:06.880Z,49.60
2018-06-11T11:40:35.500Z,51.20
2018-06-11T11:43:04.131Z,49.80
2018-06-11T11:45:32.748Z,49.70
2018-06-11T11:48:01.349Z,49.00
2018-06-11T11:50:29.975Z,49.90
2018-06-11T11:52:58.583Z,49.10
2018-06-11T11:55:27.189Z,46.90
2018-06-11T11:57:55.975Z,48.00
2018-06-11T12:00:24.569Z,48.30
2018-06-11T12:02:53.178Z,46.10
2018-06-11T12:05:22.009Z,46.70
2018-06-11T12:07:50.638Z,44.70
2018-06-11T12:10:19.243Z,46.10
2018-06-11T12:12:47.920Z,45.00
2018-06-11T12:15:16.591Z,44.50
2018-06-11T12:17:45.289Z,46.10
2018-06-11T12:20:13.874Z,45.80
2018-06-11T12:22:42.505Z,45.30
2018-06-11T12:25:11.131Z,45.30
2018-06-11T12:27:39.768Z,47.20
2018-06-11T12:30:08.437Z,45.90
2018-06-11T12:32:37.060Z,45.20
2018-06-11T12:35:05.707Z,43.20
2018-06-11T12:37:34.405Z,42.80
2018-06-11T12:40:03.114Z,42.50
2018-06-11T12:42:31.744Z,45.30
2018-06-11T12:45:00.352Z,43.10
2018-06-11T12:47:29.010Z,45.50
2018-06-11T12:49:57.630Z,43.80
2018-06-11T12:52:26.245Z,44.80
2018-06-11T12:54:54.905Z,44.40
2018-06-11T12:57:23.644Z,43.10
2018-06-11T12:59:52.297Z,43.30
2018-06-11T13:02:21.292Z,44.30
2018-06-11T13:04:49.933Z,44.90
2018-06-11T13:07:18.622Z,45.20
2018-06-11T13:09:47.283Z,43.90
2018-06-11T13:12:15.883Z,44.10
2018-06-11T13:14:44.534Z,43.20
2018-06-11T13:17:13.179Z,41.70
2018-06-11T13:19:41.845Z,43.20
2018-06-11T13:22:10.493Z,42.70
2018-06-11T13:24:39.091Z,43.30
2018-06-11T13:27:07.750Z,40.60
2018-06-11T13:29:36.369Z,40.90
2018-06-11T13:32:05.017Z,43.30
2018-06-11T13:34:33.691Z,43.40
2018-06-11T13:37:02.302Z,39.70
2018-06-11T13:39:30.959Z,43.50
2018-06-11T13:41:59.565Z,42.70
2018-06-11T13:44:28.224Z,41.70
2018-06-11T13:46:56.856Z,42.20
2018-06-11T13:49:25.518Z,41.70
2018-06-11T13:51:54.130Z,40.30
2018-06-11T13:54:23.562Z,42.60
2018-06-11T13:56:52.215Z,43.10
2018-06-11T13:59:20.901Z,42.70
2018-06-11T14:01:49.561Z,43.30
2018-06-11T14:04:18.203Z,42.30
2018-06-11T14:06:46.820Z,43.40
2018-06-11T14:09:15.448Z,43.70
2018-06-11T14:11:44.070Z,43.90
2018-06-11T14:14:12.673Z,44.50
2018-06-11T14:16:41.281Z,45.50
2018-06-11T14:19:09.911Z,45.80
2018-06-11T14:21:38.578Z,44.70
2018-06-11T14:24:07.184Z,46.50
2018-06-11T14:26:35.821Z,46.30
2018-06-11T14:29:04.490Z,46.90
2018-06-11T14:31:33.131Z,45.60
2018-06-11T14:34:01.730Z,47.00
2018-06-11T14:36:30.328Z,45.00
2018-06-11T14:38:58.995Z,45.00
2018-06-11T14:41:28.317Z,46.90
2018-06-11T14:43:56.949Z,44.70
2018-06-11T14:46:25.580Z,46.50
2018-06-11T14:48:54.211Z,45.60
2018-06-11T14:51:22.849Z,46.90
2018-06-11T14:53:51.464Z,46.60
2018-06-11T14:56:20.146Z,45.50
2018-06-11T14:58:48.772Z,47.80
2018-06-11T15:01:17.387Z,47.60
2018-06-11T15:03:46.083Z,46.90
2018-06-11T15:06:14.728Z,43.80
2018-06-11T15:08:43.432Z,44.70
2018-06-11T15:11:12.071Z,45.40
2018-06-11T15:13:40.729Z,44.30
2018-06-11T15:16:09.316Z,45.20
2018-06-11T15:18:37.944Z,45.50
2018-06-11T15:21:06.612Z,46.10
2018-06-11T15:23:35.306Z,45.40
2018-06-11T15:26:03.926Z,45.40
2018-06-11T15:28:32.561Z,47.10
2018-06-11T15:31:01.212Z,46.70
2018-06-11T15:33:29.849Z,47.00
2018-06-11T15:35:58.465Z,48.60
2018-06-11T15:38:28.407Z,48.20
2018-06-11T15:40:57.048Z,48.60
2018-06-11T15:43:25.693Z,48.70
2018-06-11T15:45:54.273Z,48.40
2018-06-11T15:48:22.962Z,50.00
2018-06-11T15:50:51.594Z,49.70
2018-06-11T15:53:20.221Z,48.70
2018-06-11T15:55:49.632Z,49.20
2018-06-11T15:58:18.408Z,49.60
2018-06-11T16:00:47.090Z,50.00
2018-06-11T16:03:15.765Z,50.20
2018-06-11T16:05:44.469Z,50.50
2018-06-11T16:08:13.097Z,50.80
2018-06-11T16:10:41.816Z,50.20
2018-06-11T16:13:10.636Z,50.10
2018-06-11T16:15:39.298Z,49.90
2018-06-11T16:18:08.024Z,50.90
2018-06-11T16:20:38.417Z,51.60
2018-06-11T16:23:07.269Z,52.00
2018-06-11T16:25:35.952Z,51.60
2018-06-11T16:28:04.869Z,52.80
2018-06-11T16:30:33.536Z,52.90
2018-06-11T16:33:02.169Z,53.40
2018-06-11T16:35:30.829Z,53.00
2018-06-11T16:37:59.485Z,53.00
2018-06-11T16:40:28.145Z,52.60
2018-06-11T16:42:56.984Z,52.90
2018-06-11T16:45:25.618Z,53.10
2018-06-11T16:47:54.254Z,53.40
2018-06-11T16:50:22.927Z,53.80
2018-06-11T16:52:51.545Z,54.80
2018-06-11T16:55:20.408Z,54.80
2018-06-11T16:57:49.002Z,55.60
2018-06-11T17:00:17.676Z,55.90
2018-06-11T17:02:46.337Z,55.50
2018-06-11T17:05:14.980Z,54.60
2018-06-11T17:07:43.651Z,55.30
2018-06-11T17:10:12.300Z,55.70
2018-06-11T17:12:40.904Z,55.80
2018-06-11T17:15:09.839Z,56.20
2018-06-11T17:17:38.480Z,56.40
2018-06-11T17:20:07.372Z,55.80
2018-06-11T17:22:36.054Z,55.30
2018-06-11T17:25:04.690Z,55.70
2018-06-11T17:27:33.356Z,56.40
2018-06-11T17:30:02.045Z,56.50
2018-06-11T17:32:30.654Z,56.20
2018-06-11T17:35:00.159Z,56.60
2018-06-11T17:37:28.806Z,56.10
2018-06-11T17:39:57.461Z,56.00
2018-06-11T17:42:26.078Z,57.30
2018-06-11T17:44:54.698Z,57.90
2018-06-11T17:47:23.346Z,57.00
2018-06-11T17:49:51.960Z,55.90
2018-06-11T17:52:20.594Z,55.30
2018-06-11T17:54:49.183Z,56.10
2018-06-11T17:57:17.831Z,56.30
2018-06-11T17:59:46.525Z,55.60
2018-06-11T18:02:15.171Z,55.40
2018-06-11T18:04:43.973Z,56.40
2018-06-11T18:07:12.594Z,56.80
2018-06-11T18:09:41.278Z,56.70
2018-06-11T18:12:09.982Z,56.60
2018-06-11T18:14:38.707Z,57.00
2018-06-11T18:17:07.372Z,56.80
2018-06-11T18:19:36.022Z,56.90
2018-06-11T18:22:04.660Z,57.70
2018-06-11T18:24:33.272Z,58.10
2018-06-11T18:27:02.031Z,58.00
2018-06-11T18:29:30.781Z,59.10
2018-06-11T18:31:59.494Z,58.40
2018-06-11T18:34:29.178Z,59.10
2018-06-11T18:36:57.803Z,59.20
2018-06-11T18:39:26.512Z,59.00
2018-06-11T18:41:55.234Z,59.80
2018-06-11T18:44:24.416Z,60.30
2018-06-11T18:46:53.056Z,60.40
2018-06-11T18:49:21.672Z,60.40
2018-06-11T18:51:50.377Z,60.60
2018-06-11T18:54:19.009Z,60.80
2018-06-11T18:56:48.535Z,60.80
2018-06-11T18:59:17.409Z,61.20
2018-06-11T19:01:46.099Z,61.00
2018-06-11T19:04:15.497Z,61.90
2018-06-11T19:06:44.133Z,62.40
2018-06-11T19:09:13.674Z,63.00
2018-06-11T19:11:42.333Z,63.40
2018-06-11T19:14:10.949Z,62.80
2018-06-11T19:16:39.635Z,62.80
2018-06-11T19:19:08.270Z,63.40
2018-06-11T19:21:36.889Z,63.40
2018-06-11T19:24:05.537Z,63.70
2018-06-11T19:26:34.202Z,63.70
2018-06-11T19:29:02.867Z,64.10
2018-06-11T19:31:31.590Z,63.90
2018-06-11T19:34:00.207Z,63.90
2018-06-11T19:36:28.806Z,64.40
2018-06-11T19:38:57.442Z,64.30
2018-06-11T19:41:26.081Z,65.00
2018-06-11T19:43:54.854Z,65.10
2018-06-11T19:46:23.577Z,64.90
2018-06-11T19:48:52.188Z,65.70
2018-06-11T19:51:20.836Z,65.70
2018-06-11T19:53:49.453Z,65.80
2018-06-11T19:56:18.183Z,65.70
2018-06-11T19:58:46.831Z,66.20
2018-06-11T20:01:15.698Z,66.20
2018-06-11T20:03:44.466Z,66.50
2018-06-11T20:06:13.244Z,66.50
2018-06-11T20:08:41.985Z,66.40
2018-06-11T20:11:10.575Z,66.80
2018-06-11T20:13:39.209Z,67.10
2018-06-11T20:16:07.907Z,67.30
2018-06-11T20:18:36.634Z,66.90
2018-06-11T20:21:05.264Z,66.80
2018-06-11T20:23:33.904Z,66.90
2018-06-11T20:26:02.510Z,67.30
2018-06-11T20:28:31.169Z,66.70
2018-06-11T20:30:59.830Z,66.80
2018-06-11T20:33:28.471Z,67.00
2018-06-11T20:35:57.134Z,67.10
2018-06-11T20:38:25.740Z,67.60
2018-06-11T20:40:54.446Z,67.60
2018-06-11T20:43:23.049Z,67.80
2018-06-11T20:45:51.687Z,67.80
2018-06-11T20:48:20.296Z,68.30
2018-06-11T20:50:49.052Z,68.70
2018-06-11T20:53:17.745Z,68.90
2018-06-11T20:55:46.520Z,69.00
2018-06-11T20:58:15.194Z,69.40
2018-06-11T21:00:43.773Z,69.60
2018-06-11T21:03:12.436Z,70.10
2018-06-11T21:05:41.073Z,70.50
2018-06-11T21:08:09.689Z,70.70
2018-06-11T21:10:38.414Z,71.00
2018-06-11T21:13:07.083Z,71.00
2018-06-11T21:15:35.784Z,71.50
2018-06-11T21:18:04.490Z,71.50
2018-06-11T21:20:33.180Z,71.80
2018-06-11T21:23:01.871Z,72.00
2018-06-11T21:25:30.562Z,72.80
2018-06-11T21:27:59.256Z,73.10
2018-06-11T21:30:27.921Z,73.40
2018-06-11T21:32:56.577Z,74.30
2018-06-11T21:35:25.282Z,74.10
2018-06-11T21:37:53.864Z,74.60
2018-06-11T21:40:22.482Z,74.80
2018-06-11T21:42:51.108Z,75.20
2018-06-11T21:45:19.717Z,75.60
2018-06-11T21:47:48.396Z,75.70
2018-06-11T21:50:17.045Z,76.20
2018-06-11T21:52:45.685Z,77.10
2018-06-11T21:55:14.285Z,76.90
2018-06-11T21:57:42.928Z,76.90
2018-06-11T22:00:11.550Z,77.50
2018-06-11T22:02:40.137Z,77.70
2018-06-11T22:05:08.788Z,77.90
2018-06-11T22:07:38.349Z,77.70
2018-06-11T22:10:07.065Z,78.00
2018-06-11T22:12:35.746Z,78.70
2018-06-11T22:15:04.713Z,78.50
2018-06-11T22:17:33.433Z,78.50
2018-06-11T22:20:02.090Z,78.80
2018-06-11T22:22:30.765Z,78.70
2018-06-11T22:24:59.422Z,78.80
2018-06-11T22:27:28.051Z,78.80
2018-06-11T22:29:56.744Z,78.80
2018-06-11T22:32:25.400Z,79.10
2018-06-11T22:34:54.089Z,79.20
2018-06-11T22:37:22.779Z,79.40
2018-06-11T22:39:51.413Z,79.60
2018-06-11T22:42:20.106Z,79.90
2018-06-11T22:44:48.775Z,79.80
2018-06-11T22:47:17.407Z,80.00
2018-06-11T22:49:46.136Z,80.20
2018-06-11T22:52:14.878Z,80.60
2018-06-11T22:54:43.653Z,80.50
2018-06-11T22:57:12.308Z,80.50
2018-06-11T22:59:40.998Z,80.50
2018-06-11T23:02:09.729Z,80.70
2018-06-11T23:04:38.372Z,80.60
2018-06-11T23:07:07.029Z,81.00
2018-06-11T23:09:35.680Z,81.20
2018-06-11T23:12:04.356Z,81.00
2018-06-11T23:14:33.062Z,81.20
2018-06-11T23:17:01.728Z,81.20
2018-06-11T23:19:30.414Z,81.30
2018-06-11T23:21:59.052Z,81.00
2018-06-11T23:24:27.716Z,80.80
2018-06-11T23:26:56.384Z,81.20
2018-06-11T23:29:25.018Z,81.20
2018-06-11T23:31:53.740Z,81.10
2018-06-11T23:34:22.413Z,80.90
2018-06-11T23:36:51.136Z,80.90
2018-06-11T23:39:19.828Z,81.00
2018-06-11T23:41:48.437Z,81.00
2018-06-11T23:44:17.088Z,81.30
2018-06-11T23:46:45.727Z,81.30
2018-06-11T23:49:14.382Z,81.00
2018-06-11T23:51:43.086Z,80.70
2018-06-11T23:54:11.756Z,80.80
2018-06-11T23:56:40.423Z,81.20
2018-06-11T23:59:09.058Z,81.10
